createdAt,value
2023-05-21T00:00:29.987Z,73.47
2023-05-21T00:02:59.458Z,73.78
2023-05-21T00:05:26.903Z,76.34
2023-05-21T00:07:55.188Z,74.68
2023-05-21T00:10:22.528Z,73.59
2023-05-21T00:12:49.761Z,72.30
2023-05-21T00:15:16.948Z,71.78
2023-05-21T00:17:44.387Z,71.27
2023-05-21T00:20:12.081Z,72.15
2023-05-21T00:22:40.426Z,71.83
2023-05-21T00:25:08.108Z,71.56
2023-05-21T00:27:35.256Z,71.13
2023-05-21T00:30:03.030Z,70.87
2023-05-21T00:32:30.136Z,71.02
2023-05-21T00:34:58.320Z,71.14
2023-05-21T00:37:25.426Z,72.83
2023-05-21T00:39:52.683Z,74.46
2023-05-21T00:42:19.719Z,74.57
2023-05-21T00:44:46.958Z,75.31
2023-05-21T00:47:14.900Z,76.18
2023-05-21T00:49:42.381Z,75.21
2023-05-21T00:52:10.024Z,73.51
2023-05-21T00:54:37.312Z,72.64
2023-05-21T00:57:05.171Z,72.17
2023-05-21T00:59:33.413Z,72.08
2023-05-21T01:02:04.351Z,71.96
2023-05-21T01:04:32.322Z,71.55
2023-05-21T01:06:59.592Z,71.42
2023-05-21T01:09:27.113Z,71.50
2023-05-21T01:11:55.859Z,73.41
2023-05-21T01:14:25.055Z,77.84
2023-05-21T01:16:53.297Z,82.14
2023-05-21T01:19:22.988Z,81.60
2023-05-21T01:22:01.670Z,80.27
2023-05-21T01:24:28.801Z,78.90
2023-05-21T01:26:56.165Z,77.66
2023-05-21T01:29:23.287Z,76.86
2023-05-21T01:31:56.650Z,76.49
2023-05-21T01:34:33.003Z,75.22
2023-05-21T01:37:12.318Z,74.08
2023-05-21T01:39:47.816Z,73.34
2023-05-21T01:42:19.749Z,72.64
2023-05-21T01:44:48.674Z,72.12
2023-05-21T01:47:17.076Z,72.38
2023-05-21T01:49:45.040Z,72.22
2023-05-21T01:52:13.108Z,71.67
2023-05-21T01:54:40.204Z,71.27
2023-05-21T01:57:07.470Z,71.71
2023-05-21T01:59:35.246Z,73.03
2023-05-21T02:02:02.793Z,74.44
2023-05-21T02:04:29.981Z,74.52
2023-05-21T02:06:57.052Z,74.61
2023-05-21T02:09:24.204Z,75.13
2023-05-21T02:11:51.586Z,74.51
2023-05-21T02:14:18.727Z,74.23
2023-05-21T02:16:45.808Z,74.14
2023-05-21T02:19:13.053Z,73.71
2023-05-21T02:21:40.299Z,72.90
2023-05-21T02:24:07.395Z,71.90
2023-05-21T02:26:34.941Z,72.51
2023-05-21T02:29:01.996Z,72.51
2023-05-21T02:31:29.778Z,73.18
2023-05-21T02:33:57.092Z,72.69
2023-05-21T02:36:25.400Z,72.12
2023-05-21T02:38:52.874Z,72.03
2023-05-21T02:41:21.711Z,71.24
2023-05-21T02:43:48.702Z,70.81
2023-05-21T02:46:16.488Z,70.71
2023-05-21T02:48:43.634Z,70.76
2023-05-21T02:51:10.806Z,69.97
2023-05-21T02:53:37.963Z,69.99
2023-05-21T02:56:05.666Z,70.15
2023-05-21T02:58:33.590Z,69.87
2023-05-21T03:01:00.698Z,70.05
2023-05-21T03:03:28.554Z,69.70
2023-05-21T03:05:55.753Z,70.75
2023-05-21T03:08:22.951Z,70.27
2023-05-21T03:10:50.081Z,70.26
2023-05-21T03:13:17.502Z,69.74
2023-05-21T03:15:46.614Z,70.02
2023-05-21T03:18:14.333Z,69.57
2023-05-21T03:20:43.866Z,70.19
2023-05-21T03:23:14.246Z,71.26
2023-05-21T03:25:43.778Z,71.65
2023-05-21T03:28:11.174Z,72.23
2023-05-21T03:30:49.782Z,72.74
2023-05-21T03:33:42.594Z,73.71
2023-05-21T03:36:21.644Z,71.75
2023-05-21T03:38:49.040Z,70.83
2023-05-21T03:41:16.454Z,70.22
2023-05-21T03:43:47.108Z,70.76
2023-05-21T03:46:15.574Z,70.98
2023-05-21T03:49:11.923Z,70.48
2023-05-21T03:51:40.528Z,70.23
2023-05-21T03:54:09.687Z,72.16
2023-05-21T03:56:37.884Z,73.18
2023-05-21T03:59:05.162Z,71.92
2023-05-21T04:01:33.461Z,72.73
2023-05-21T04:04:02.259Z,73.58
2023-05-21T04:06:30.315Z,72.21
2023-05-21T04:08:58.139Z,73.37
2023-05-21T04:11:25.341Z,72.33
2023-05-21T04:13:52.558Z,71.98
2023-05-21T04:16:19.645Z,70.29
2023-05-21T04:18:47.613Z,69.76
2023-05-21T04:21:16.442Z,69.55
2023-05-21T04:23:43.861Z,70.35
2023-05-21T04:26:20.853Z,70.27
2023-05-21T04:28:47.952Z,69.91
2023-05-21T04:31:15.213Z,69.72
2023-05-21T04:33:46.069Z,70.03
2023-05-21T04:36:13.609Z,70.92
2023-05-21T04:38:42.077Z,72.69
2023-05-21T04:41:10.888Z,73.35
2023-05-21T04:43:38.529Z,73.47
2023-05-21T04:46:06.179Z,74.98
2023-05-21T04:48:34.667Z,74.30
2023-05-21T04:51:01.854Z,73.56
2023-05-21T04:53:29.299Z,72.53
2023-05-21T04:55:56.557Z,71.24
2023-05-21T04:58:23.709Z,70.84
2023-05-21T05:00:52.134Z,72.15
2023-05-21T05:03:20.549Z,71.89
2023-05-21T05:05:47.930Z,72.56
2023-05-21T05:08:16.115Z,71.78
2023-05-21T05:10:43.846Z,71.44
2023-05-21T05:13:10.970Z,71.69
2023-05-21T05:15:38.283Z,71.42
2023-05-21T05:18:08.809Z,70.71
2023-05-21T05:20:36.360Z,71.52
2023-05-21T05:23:03.556Z,71.21
2023-05-21T05:25:30.857Z,70.35
2023-05-21T05:27:58.771Z,70.45
2023-05-21T05:30:26.039Z,69.89
2023-05-21T05:32:55.954Z,70.63
2023-05-21T05:35:23.022Z,71.01
2023-05-21T05:37:50.120Z,70.91
2023-05-21T05:40:17.416Z,71.38
2023-05-21T05:42:44.753Z,71.56
2023-05-21T05:45:15.705Z,70.94
2023-05-21T05:47:42.743Z,70.44
2023-05-21T05:50:10.438Z,70.51
2023-05-21T05:52:37.646Z,73.00
2023-05-21T05:55:05.261Z,75.71
2023-05-21T05:57:32.309Z,78.40
2023-05-21T06:00:05.786Z,79.69
2023-05-21T06:02:40.284Z,81.77
2023-05-21T06:05:10.055Z,83.22
2023-05-21T06:07:41.017Z,86.32
2023-05-21T06:10:08.859Z,89.27
2023-05-21T06:12:36.524Z,89.68
2023-05-21T06:15:05.191Z,90.12
2023-05-21T06:17:34.383Z,90.30
2023-05-21T06:20:02.194Z,92.40
2023-05-21T06:22:31.315Z,91.08
2023-05-21T06:24:58.626Z,85.34
2023-05-21T06:27:25.803Z,81.04
2023-05-21T06:29:53.260Z,82.21
2023-05-21T06:32:21.797Z,79.27
2023-05-21T06:34:49.299Z,77.55
2023-05-21T06:37:22.124Z,75.70
2023-05-21T06:39:50.151Z,75.38
2023-05-21T06:42:18.493Z,75.46
2023-05-21T06:45:15.665Z,74.78
2023-05-21T06:47:45.398Z,73.91
2023-05-21T06:50:15.899Z,73.40
2023-05-21T06:52:44.366Z,72.19
2023-05-21T06:55:12.459Z,68.84
2023-05-21T06:58:01.920Z,67.40
2023-05-21T07:00:31.173Z,71.62
2023-05-21T07:02:58.800Z,71.39
2023-05-21T07:05:26.546Z,68.82
2023-05-21T07:07:54.924Z,68.58
2023-05-21T07:10:23.376Z,70.56
2023-05-21T07:12:53.616Z,71.00
2023-05-21T07:15:22.704Z,70.71
2023-05-21T07:17:51.889Z,70.78
2023-05-21T07:20:21.471Z,70.65
2023-05-21T07:22:51.752Z,70.16
2023-05-21T07:25:19.177Z,70.92
2023-05-21T07:27:46.787Z,70.21
2023-05-21T07:30:15.669Z,70.10
2023-05-21T07:32:45.363Z,69.51
2023-05-21T07:35:13.884Z,68.26
2023-05-21T07:37:42.097Z,68.39
2023-05-21T07:40:10.492Z,69.17
2023-05-21T07:42:38.078Z,67.82
2023-05-21T07:45:07.070Z,68.99
2023-05-21T07:47:39.414Z,68.21
2023-05-21T07:50:06.994Z,67.32
2023-05-21T07:52:34.486Z,66.92
2023-05-21T07:55:01.786Z,66.12
2023-05-21T07:57:32.081Z,66.11
2023-05-21T08:00:09.484Z,67.29
2023-05-21T08:02:43.074Z,68.18
2023-05-21T08:05:13.224Z,67.97
2023-05-21T08:07:40.598Z,66.41
2023-05-21T08:10:09.182Z,67.20
2023-05-21T08:12:36.346Z,64.49
2023-05-21T08:15:03.727Z,64.75
2023-05-21T08:17:31.940Z,64.10
2023-05-21T08:19:58.985Z,64.76
2023-05-21T08:22:26.227Z,64.97
2023-05-21T08:24:53.290Z,63.52
2023-05-21T08:27:21.373Z,60.74
2023-05-21T08:29:48.485Z,60.03
2023-05-21T08:32:16.203Z,57.36
2023-05-21T08:34:43.687Z,59.04
2023-05-21T08:37:25.441Z,60.46
2023-05-21T08:40:04.345Z,59.00
2023-05-21T08:42:49.721Z,59.14
2023-05-21T08:45:22.749Z,57.75
2023-05-21T08:47:57.389Z,57.13
2023-05-21T08:50:28.135Z,56.91
2023-05-21T08:52:59.145Z,56.40
2023-05-21T08:55:27.061Z,56.55
2023-05-21T08:57:55.273Z,55.55
2023-05-21T09:00:24.351Z,55.03
2023-05-21T09:02:56.409Z,55.67
2023-05-21T09:05:27.125Z,56.28
2023-05-21T09:08:10.958Z,54.29
2023-05-21T09:10:57.090Z,55.31
2023-05-21T09:13:33.198Z,54.92
2023-05-21T09:16:04.446Z,54.04
2023-05-21T09:18:31.720Z,54.61
2023-05-21T09:21:29.894Z,53.91
2023-05-21T09:24:04.897Z,53.75
2023-05-21T09:26:32.716Z,52.35
2023-05-21T09:29:03.997Z,51.79
2023-05-21T09:31:31.189Z,51.97
2023-05-21T09:33:58.402Z,51.54
2023-05-21T09:36:27.224Z,51.88
2023-05-21T09:38:54.489Z,51.23
2023-05-21T09:41:32.751Z,49.38
2023-05-21T09:44:01.680Z,50.42
2023-05-21T09:46:40.741Z,49.81
2023-05-21T09:49:23.652Z,50.29
2023-05-21T09:51:54.748Z,49.88
2023-05-21T09:54:24.179Z,49.59
2023-05-21T09:56:53.668Z,49.35
2023-05-21T09:59:21.322Z,50.04
2023-05-21T10:01:52.371Z,49.18
2023-05-21T10:04:20.200Z,49.20
2023-05-21T10:06:48.377Z,49.64
2023-05-21T10:09:18.918Z,49.71
2023-05-21T10:11:48.242Z,49.33
2023-05-21T10:14:18.649Z,50.71
2023-05-21T10:16:48.273Z,50.79
2023-05-21T10:19:16.477Z,50.57
2023-05-21T10:21:45.188Z,50.91
2023-05-21T10:24:13.849Z,50.52
2023-05-21T10:26:41.780Z,49.60
2023-05-21T10:29:10.165Z,49.01
2023-05-21T10:31:39.238Z,49.10
2023-05-21T10:34:06.574Z,49.61
2023-05-21T10:36:36.414Z,50.20
2023-05-21T10:39:03.600Z,49.89
2023-05-21T10:41:42.749Z,49.34
2023-05-21T10:44:51.655Z,49.53
2023-05-21T10:47:30.135Z,47.82
2023-05-21T10:50:16.694Z,49.15
2023-05-21T10:52:46.848Z,49.04
2023-05-21T10:55:36.215Z,48.05
2023-05-21T10:58:18.640Z,48.54
2023-05-21T11:00:45.934Z,47.86
2023-05-21T11:03:15.267Z,49.26
2023-05-21T11:05:52.069Z,48.34
2023-05-21T11:08:27.497Z,47.53
2023-05-21T11:10:58.236Z,47.25
2023-05-21T11:13:27.031Z,47.82
2023-05-21T11:16:05.395Z,46.48
2023-05-21T11:18:38.591Z,47.00
2023-05-21T11:21:22.445Z,45.60
2023-05-21T11:23:54.436Z,45.57
2023-05-21T11:26:24.019Z,45.88
2023-05-21T11:29:12.004Z,45.59
2023-05-21T11:31:39.454Z,43.86
2023-05-21T11:34:19.503Z,43.58
2023-05-21T11:36:48.328Z,43.62
2023-05-21T11:39:17.953Z,43.41
2023-05-21T11:41:58.371Z,44.08
2023-05-21T11:44:56.371Z,43.38
2023-05-21T11:47:24.176Z,43.21
2023-05-21T11:49:51.535Z,43.09
2023-05-21T11:52:19.917Z,43.05
2023-05-21T11:54:54.280Z,43.30
2023-05-21T11:57:22.616Z,42.84
2023-05-21T11:59:53.537Z,41.97
2023-05-21T12:02:22.095Z,41.80
2023-05-21T12:04:51.655Z,41.47
2023-05-21T12:07:20.199Z,41.39
2023-05-21T12:09:49.286Z,42.26
2023-05-21T12:12:18.679Z,41.23
2023-05-21T12:14:48.133Z,41.49
2023-05-21T12:17:26.924Z,42.12
2023-05-21T12:19:56.709Z,41.97
2023-05-21T12:22:25.222Z,41.93
2023-05-21T12:24:53.935Z,40.22
2023-05-21T12:27:22.349Z,41.07
2023-05-21T12:29:52.038Z,41.64
2023-05-21T12:32:21.646Z,41.49
2023-05-21T12:34:51.470Z,41.29
2023-05-21T12:37:22.663Z,41.69
2023-05-21T12:39:51.687Z,40.86
2023-05-21T12:42:36.003Z,41.54
2023-05-21T12:45:08.430Z,41.10
2023-05-21T12:47:36.515Z,40.82
2023-05-21T12:50:08.154Z,41.20
2023-05-21T12:52:35.247Z,40.57
2023-05-21T12:55:02.349Z,40.92
2023-05-21T12:57:39.323Z,42.35
2023-05-21T13:00:11.468Z,39.60
2023-05-21T13:02:44.180Z,40.06
2023-05-21T13:05:17.433Z,40.60
2023-05-21T13:07:47.463Z,39.18
2023-05-21T13:10:18.929Z,37.54
2023-05-21T13:12:46.566Z,37.87
2023-05-21T13:15:14.183Z,37.57
2023-05-21T13:17:41.574Z,37.93
2023-05-21T13:20:15.130Z,38.26
2023-05-21T13:22:52.763Z,37.58
2023-05-21T13:25:22.361Z,36.31
2023-05-21T13:27:51.210Z,37.55
2023-05-21T13:30:19.234Z,37.23
2023-05-21T13:32:47.139Z,37.16
2023-05-21T13:35:16.720Z,37.00
2023-05-21T13:37:44.079Z,36.90
2023-05-21T13:40:14.644Z,37.25
2023-05-21T13:42:42.938Z,37.76
2023-05-21T13:45:12.859Z,38.05
2023-05-21T13:47:40.747Z,38.22
2023-05-21T13:50:08.990Z,37.76
2023-05-21T13:52:36.700Z,41.48
2023-05-21T13:55:04.001Z,44.16
2023-05-21T13:57:31.397Z,47.53
2023-05-21T13:59:59.387Z,49.24
2023-05-21T14:02:26.757Z,49.88
2023-05-21T14:04:54.140Z,50.94
2023-05-21T14:07:22.421Z,55.51
2023-05-21T14:09:49.919Z,58.55
2023-05-21T14:12:17.300Z,58.36
2023-05-21T14:14:44.746Z,60.09
2023-05-21T14:17:12.016Z,62.79
2023-05-21T14:19:39.152Z,69.08
2023-05-21T14:22:06.294Z,74.85
2023-05-21T14:24:33.530Z,78.00
2023-05-21T14:27:00.695Z,79.06
2023-05-21T14:29:27.896Z,80.34
2023-05-21T14:31:55.140Z,81.21
2023-05-21T14:34:22.358Z,80.76
2023-05-21T14:36:49.570Z,80.66
2023-05-21T14:39:17.333Z,79.71
2023-05-21T14:41:44.508Z,81.73
2023-05-21T14:44:11.809Z,81.95
2023-05-21T14:46:39.654Z,82.14
2023-05-21T14:49:07.082Z,83.04
2023-05-21T14:51:34.200Z,84.12
2023-05-21T14:54:01.414Z,84.84
2023-05-21T14:56:28.715Z,84.67
2023-05-21T14:58:56.645Z,86.94
2023-05-21T15:01:24.124Z,87.70
2023-05-21T15:03:51.706Z,87.11
2023-05-21T15:06:19.078Z,87.44
2023-05-21T15:08:46.265Z,88.72
2023-05-21T15:11:13.473Z,89.98
2023-05-21T15:13:41.262Z,90.28
2023-05-21T15:16:08.489Z,91.59
2023-05-21T15:18:35.656Z,92.81
2023-05-21T15:21:02.889Z,93.08
2023-05-21T15:23:29.990Z,93.54
2023-05-21T15:25:57.269Z,93.64
2023-05-21T15:28:24.474Z,92.67
2023-05-21T15:30:51.671Z,89.24
2023-05-21T15:33:18.797Z,88.97
2023-05-21T15:35:46.193Z,90.34
2023-05-21T15:38:13.562Z,91.35
2023-05-21T15:40:43.368Z,89.93
2023-05-21T15:43:10.482Z,90.62
2023-05-21T15:45:38.688Z,91.30
2023-05-21T15:48:06.861Z,92.55
2023-05-21T15:50:35.864Z,93.28
2023-05-21T15:53:04.774Z,94.58
2023-05-21T15:55:33.520Z,94.46
2023-05-21T15:58:02.331Z,94.35
2023-05-21T16:00:29.632Z,93.40
2023-05-21T16:02:56.982Z,93.15
2023-05-21T16:05:24.298Z,92.47
2023-05-21T16:07:51.620Z,91.40
2023-05-21T16:10:18.934Z,91.27
2023-05-21T16:12:46.110Z,91.55
2023-05-21T16:15:13.377Z,90.92
2023-05-21T16:17:40.923Z,90.74
2023-05-21T16:20:08.373Z,91.20
2023-05-21T16:22:35.591Z,91.71
2023-05-21T16:25:03.116Z,92.82
2023-05-21T16:27:30.483Z,94.95
2023-05-21T16:29:58.372Z,95.34
2023-05-21T16:32:25.659Z,94.80
2023-05-21T16:34:52.745Z,94.80
2023-05-21T16:37:19.898Z,95.20
2023-05-21T16:39:46.982Z,97.39
2023-05-21T16:42:14.027Z,98.78
2023-05-21T16:44:41.207Z,100.00
2023-05-21T16:47:08.438Z,100.00
2023-05-21T16:49:35.809Z,100.00
2023-05-21T16:52:03.458Z,100.00
2023-05-21T16:54:31.026Z,100.00
2023-05-21T16:56:58.620Z,100.00
2023-05-21T16:59:25.774Z,100.00
2023-05-21T17:01:52.942Z,100.00
2023-05-21T17:04:20.086Z,100.00
2023-05-21T17:06:47.320Z,100.00
2023-05-21T17:09:15.286Z,100.00
2023-05-21T17:11:43.774Z,100.00
2023-05-21T17:14:13.478Z,100.00
2023-05-21T17:16:44.988Z,100.00
2023-05-21T17:19:12.102Z,100.00
2023-05-21T17:21:39.529Z,100.00
2023-05-21T17:24:06.870Z,100.00
2023-05-21T17:26:34.045Z,100.00
2023-05-21T17:29:01.365Z,100.00
2023-05-21T17:31:32.168Z,100.00
2023-05-21T17:33:59.770Z,100.00
2023-05-21T17:36:26.970Z,100.00
2023-05-21T17:38:54.158Z,100.00
2023-05-21T17:41:22.053Z,100.00
2023-05-21T17:43:49.207Z,100.00
2023-05-21T17:46:18.015Z,100.00
2023-05-21T17:48:45.750Z,100.00
2023-05-21T17:51:13.582Z,100.00
2023-05-21T17:53:41.502Z,100.00
2023-05-21T17:56:10.555Z,100.00
2023-05-21T17:58:37.754Z,100.00
2023-05-21T18:01:05.167Z,100.00
2023-05-21T18:03:32.405Z,100.00
2023-05-21T18:05:59.562Z,100.00
2023-05-21T18:08:27.067Z,100.00
2023-05-21T18:10:54.339Z,100.00
2023-05-21T18:13:21.580Z,100.00
2023-05-21T18:15:48.816Z,100.00
2023-05-21T18:18:20.675Z,100.00
2023-05-21T18:20:49.378Z,100.00
2023-05-21T18:23:17.365Z,100.00
2023-05-21T18:25:44.527Z,100.00
2023-05-21T18:28:11.879Z,100.00
2023-05-21T18:30:39.311Z,100.00
2023-05-21T18:33:08.404Z,100.00
2023-05-21T18:35:35.601Z,100.00
2023-05-21T18:38:04.277Z,100.00
2023-05-21T18:40:33.370Z,100.00
2023-05-21T18:43:00.917Z,100.00
2023-05-21T18:45:28.220Z,100.00
2023-05-21T18:47:55.769Z,100.00
2023-05-21T18:50:22.913Z,100.00
2023-05-21T18:52:53.501Z,100.00
2023-05-21T18:55:20.721Z,100.00
2023-05-21T18:57:47.997Z,100.00
2023-05-21T19:00:15.587Z,100.00
2023-05-21T19:02:44.268Z,100.00
2023-05-21T19:05:11.786Z,100.00
2023-05-21T19:07:41.299Z,100.00
2023-05-21T19:10:09.125Z,100.00
2023-05-21T19:12:36.458Z,100.00
2023-05-21T19:15:04.355Z,100.00
2023-05-21T19:17:33.582Z,100.00
2023-05-21T19:20:01.201Z,100.00
2023-05-21T19:22:28.944Z,100.00
2023-05-21T19:24:56.130Z,100.00
2023-05-21T19:27:23.230Z,100.00
2023-05-21T19:29:50.568Z,100.00
2023-05-21T19:32:17.871Z,100.00
2023-05-21T19:34:45.013Z,100.00
2023-05-21T19:37:12.202Z,100.00
2023-05-21T19:39:43.683Z,100.00
2023-05-21T19:42:11.709Z,100.00
2023-05-21T19:44:43.157Z,100.00
2023-05-21T19:47:10.459Z,100.00
2023-05-21T19:49:37.674Z,100.00
2023-05-21T19:52:05.535Z,100.00
2023-05-21T19:54:32.672Z,100.00
2023-05-21T19:56:59.851Z,100.00
2023-05-21T19:59:27.098Z,100.00
2023-05-21T20:01:54.851Z,100.00
2023-05-21T20:04:22.075Z,100.00
2023-05-21T20:06:49.314Z,100.00
2023-05-21T20:09:18.081Z,100.00
2023-05-21T20:11:45.249Z,100.00
2023-05-21T20:14:13.594Z,100.00
2023-05-21T20:16:42.513Z,100.00
2023-05-21T20:19:11.373Z,100.00
2023-05-21T20:21:38.393Z,100.00
2023-05-21T20:24:06.005Z,100.00
2023-05-21T20:26:34.926Z,100.00
2023-05-21T20:29:02.381Z,100.00
2023-05-21T20:31:29.852Z,100.00
2023-05-21T20:33:56.992Z,100.00
2023-05-21T20:36:25.875Z,100.00
2023-05-21T20:38:52.971Z,100.00
2023-05-21T20:41:20.244Z,100.00
2023-05-21T20:43:47.595Z,100.00
2023-05-21T20:46:17.664Z,100.00
2023-05-21T20:48:47.459Z,100.00
2023-05-21T20:51:14.576Z,100.00
2023-05-21T20:53:41.712Z,100.00
2023-05-21T20:56:09.233Z,100.00
2023-05-21T20:58:36.395Z,100.00
2023-05-21T21:01:03.724Z,100.00
2023-05-21T21:03:34.373Z,100.00
2023-05-21T21:06:04.916Z,100.00
2023-05-21T21:08:32.167Z,100.00
2023-05-21T21:10:59.454Z,100.00
2023-05-21T21:13:26.748Z,100.00
2023-05-21T21:15:53.845Z,100.00
2023-05-21T21:18:20.906Z,100.00
2023-05-21T21:20:52.951Z,100.00
2023-05-21T21:23:25.146Z,100.00
2023-05-21T21:25:52.238Z,100.00
2023-05-21T21:28:19.573Z,100.00
2023-05-21T21:30:47.016Z,100.00
2023-05-21T21:33:16.361Z,100.00
2023-05-21T21:35:43.803Z,100.00
2023-05-21T21:38:11.069Z,100.00
2023-05-21T21:40:38.331Z,100.00
2023-05-21T21:43:05.680Z,100.00
2023-05-21T21:45:32.789Z,100.00
2023-05-21T21:47:59.995Z,100.00
2023-05-21T21:50:27.112Z,100.00
2023-05-21T21:52:56.061Z,100.00
2023-05-21T21:55:23.125Z,100.00
2023-05-21T21:57:50.563Z,100.00
2023-05-21T22:00:17.976Z,100.00
2023-05-21T22:02:48.163Z,100.00
2023-05-21T22:05:15.285Z,100.00
2023-05-21T22:07:48.393Z,100.00
2023-05-21T22:10:17.052Z,100.00
2023-05-21T22:12:44.666Z,100.00
2023-05-21T22:15:20.465Z,100.00
2023-05-21T22:17:48.726Z,100.00
2023-05-21T22:20:17.715Z,100.00
2023-05-21T22:22:46.220Z,100.00
2023-05-21T22:25:13.534Z,100.00
2023-05-21T22:27:40.733Z,100.00
2023-05-21T22:30:08.544Z,100.00
2023-05-21T22:32:35.677Z,100.00
2023-05-21T22:35:02.769Z,100.00
2023-05-21T22:37:30.158Z,100.00
2023-05-21T22:39:57.990Z,100.00
2023-05-21T22:42:25.100Z,100.00
2023-05-21T22:44:52.282Z,100.00
2023-05-21T22:47:23.834Z,100.00
2023-05-21T22:49:53.734Z,100.00
2023-05-21T22:52:24.130Z,100.00
2023-05-21T22:54:54.791Z,100.00
2023-05-21T22:57:22.007Z,100.00
2023-05-21T22:59:49.182Z,100.00
2023-05-21T23:02:16.611Z,100.00
2023-05-21T23:04:44.741Z,100.00
2023-05-21T23:07:12.611Z,100.00
2023-05-21T23:09:40.063Z,100.00
2023-05-21T23:12:07.894Z,100.00
2023-05-21T23:14:35.074Z,100.00
2023-05-21T23:17:02.480Z,100.00
2023-05-21T23:19:29.999Z,100.00
2023-05-21T23:21:57.484Z,100.00
2023-05-21T23:24:24.714Z,100.00
2023-05-21T23:26:52.443Z,100.00
2023-05-21T23:29:19.555Z,100.00
2023-05-21T23:31:47.033Z,100.00
2023-05-21T23:34:14.487Z,100.00
2023-05-21T23:36:41.548Z,100.00
2023-05-21T23:39:09.383Z,100.00
2023-05-21T23:41:36.800Z,100.00
2023-05-21T23:44:04.106Z,100.00
2023-05-21T23:46:31.149Z,100.00
2023-05-21T23:48:58.173Z,100.00
2023-05-21T23:51:25.541Z,100.00
2023-05-21T23:53:52.637Z,100.00
2023-05-21T23:56:19.752Z,100.00
2023-05-21T23:58:46.803Z,100.00
